Terminal Aerodrome Forecast
Issued by NWS

Home | Current Version | Previous Version | Text Only | Print | Product List | Glossary On
Versions: 1 2 3 4 5 6 7 8 9 10 11 12
785
FTUS45 KPSR 200524
TAFBLH
TAF
KBLH 200524Z 2006/2106 20008KT P6SM SCT250
     FM201800 24012G20KT P6SM FEW250
     FM202100 24020G28KT P6SM FEW250
     FM210500 27012KT P6SM FEW250=

USA.gov is the U.S. government's official web portal to all federal, state and local government web resources and services.